createdAt,value
2023-04-08T00:00:50.918Z,39.20
2023-04-08T00:03:18.068Z,39.43
2023-04-08T00:05:44.789Z,38.83
2023-04-08T00:08:11.401Z,39.20
2023-04-08T00:10:38.044Z,40.47
2023-04-08T00:13:04.716Z,41.00
2023-04-08T00:15:31.352Z,39.00
2023-04-08T00:17:58.269Z,42.40
2023-04-08T00:20:25.140Z,40.53
2023-04-08T00:22:51.803Z,42.27
2023-04-08T00:25:18.458Z,39.70
2023-04-08T00:27:45.257Z,42.90
2023-04-08T00:30:12.099Z,41.93
2023-04-08T00:32:38.798Z,39.70
2023-04-08T00:35:05.761Z,41.70
2023-04-08T00:37:32.705Z,41.30
2023-04-08T00:42:26.314Z,40.20
2023-04-08T00:44:52.991Z,39.57
2023-04-08T00:47:19.737Z,40.27
2023-04-08T00:49:46.437Z,42.40
2023-04-08T00:52:13.932Z,44.30
2023-04-08T00:54:42.090Z,42.10
2023-04-08T00:57:09.023Z,43.93
2023-04-08T00:59:38.636Z,48.73
2023-04-08T01:02:31.585Z,43.77
2023-04-08T01:05:35.639Z,45.40
2023-04-08T01:08:06.781Z,47.97
2023-04-08T01:10:37.323Z,49.23
2023-04-08T01:13:10.111Z,39.90
2023-04-08T01:15:39.172Z,43.03
2023-04-08T01:18:07.807Z,38.63
2023-04-08T01:20:35.345Z,41.10
2023-04-08T01:23:16.225Z,41.57
2023-04-08T01:25:56.364Z,50.17
2023-04-08T01:28:27.042Z,39.43
2023-04-08T01:30:57.044Z,42.53
2023-04-08T01:33:28.252Z,38.40
2023-04-08T01:35:56.675Z,47.87
2023-04-08T01:38:26.443Z,45.03
2023-04-08T01:40:56.403Z,41.73
2023-04-08T01:43:25.184Z,37.57
2023-04-08T01:45:57.968Z,40.90
2023-04-08T01:48:25.605Z,39.97
2023-04-08T01:50:53.184Z,35.07
2023-04-08T01:53:20.086Z,36.53
2023-04-08T01:55:49.361Z,36.57
2023-04-08T01:58:21.162Z,32.37
2023-04-08T02:00:49.430Z,31.13
2023-04-08T02:03:19.838Z,29.20
2023-04-08T02:05:46.966Z,27.50
2023-04-08T02:08:13.680Z,27.10
2023-04-08T02:10:40.703Z,28.00
2023-04-08T02:13:08.217Z,25.70
2023-04-08T02:15:38.152Z,27.97
2023-04-08T02:18:31.664Z,28.73
2023-04-08T02:21:11.667Z,27.93
2023-04-08T02:23:41.247Z,28.77
2023-04-08T02:26:14.012Z,27.63
2023-04-08T02:28:42.059Z,28.00
2023-04-08T02:31:13.567Z,28.13
2023-04-08T02:33:45.284Z,28.80
2023-04-08T02:36:13.116Z,27.73
2023-04-08T02:38:40.683Z,29.30
2023-04-08T02:41:07.995Z,29.20
2023-04-08T02:43:35.047Z,27.93
2023-04-08T02:46:05.760Z,29.00
2023-04-08T02:48:32.746Z,29.23
2023-04-08T02:50:59.426Z,28.60
2023-04-08T02:53:26.391Z,27.27
2023-04-08T02:55:53.230Z,28.97
2023-04-08T02:58:20.357Z,27.90
2023-04-08T03:00:47.048Z,28.57
2023-04-08T03:03:13.810Z,27.20
2023-04-08T03:05:41.178Z,28.40
2023-04-08T03:08:07.961Z,26.37
2023-04-08T03:10:34.666Z,25.43
2023-04-08T03:13:01.444Z,27.70
2023-04-08T03:15:28.271Z,27.43
2023-04-08T03:17:54.949Z,24.37
2023-04-08T03:20:21.613Z,24.13
2023-04-08T03:22:48.247Z,26.20
2023-04-08T03:25:14.911Z,25.80
2023-04-08T03:27:41.580Z,25.30
2023-04-08T03:30:08.903Z,25.87
2023-04-08T03:32:35.835Z,23.67
2023-04-08T03:35:03.506Z,21.40
2023-04-08T03:37:30.312Z,20.70
2023-04-08T03:39:57.023Z,19.30
2023-04-08T03:42:23.998Z,18.97
2023-04-08T03:44:50.658Z,20.50
2023-04-08T03:47:17.346Z,19.30
2023-04-08T03:49:44.421Z,19.03
2023-04-08T03:52:11.068Z,19.40
2023-04-08T03:54:37.747Z,19.13
2023-04-08T03:57:04.450Z,17.77
2023-04-08T03:59:31.847Z,19.50
2023-04-08T04:01:58.504Z,20.07
2023-04-08T04:04:25.450Z,17.53
2023-04-08T04:06:52.377Z,15.37
2023-04-08T04:09:19.032Z,16.60
2023-04-08T04:11:45.754Z,17.47
2023-04-08T04:14:12.563Z,17.33
2023-04-08T04:16:39.300Z,14.87
2023-04-08T04:19:06.008Z,17.00
2023-04-08T04:21:32.681Z,17.93
2023-04-08T04:23:59.296Z,16.50
2023-04-08T04:26:25.940Z,17.80
2023-04-08T04:28:52.886Z,29.77
2023-04-08T04:31:26.183Z,16.00
2023-04-08T04:33:53.035Z,17.77
2023-04-08T04:36:20.495Z,16.10
2023-04-08T04:38:49.611Z,20.30
2023-04-08T04:41:17.216Z,16.80
2023-04-08T04:43:43.926Z,14.87
2023-04-08T04:46:10.782Z,15.67
2023-04-08T04:48:37.588Z,13.07
2023-04-08T04:51:04.431Z,15.13
2023-04-08T04:53:31.655Z,18.93
2023-04-08T04:55:58.745Z,16.77
2023-04-08T04:58:25.427Z,14.90
2023-04-08T05:00:52.191Z,12.70
2023-04-08T05:03:19.044Z,13.63
2023-04-08T05:05:50.441Z,10.73
2023-04-08T05:08:17.153Z,9.03
2023-04-08T05:10:43.782Z,10.67
2023-04-08T05:13:10.478Z,11.70
2023-04-08T05:15:37.277Z,11.00
2023-04-08T05:18:04.034Z,9.70
2023-04-08T05:20:30.774Z,10.80
2023-04-08T05:22:57.682Z,11.17
2023-04-08T05:25:24.307Z,10.97
2023-04-08T05:27:51.264Z,11.60
2023-04-08T05:30:18.548Z,12.83
2023-04-08T05:32:45.331Z,12.17
2023-04-08T05:35:12.025Z,11.93
2023-04-08T05:37:38.764Z,13.23
2023-04-08T05:40:06.111Z,8.90
2023-04-08T05:42:32.763Z,11.90
2023-04-08T05:44:59.753Z,10.30
2023-04-08T05:47:26.495Z,15.97
2023-04-08T05:49:53.213Z,12.20
2023-04-08T05:52:19.859Z,10.53
2023-04-08T05:54:46.531Z,9.90
2023-04-08T05:57:13.628Z,9.63
2023-04-08T05:59:40.613Z,11.23
2023-04-08T06:02:07.527Z,9.70
2023-04-08T06:04:34.497Z,14.43
2023-04-08T06:07:02.844Z,10.53
2023-04-08T06:09:29.691Z,11.37
2023-04-08T06:11:57.347Z,13.33
2023-04-08T06:14:24.056Z,29.00
2023-04-08T06:16:50.762Z,11.13
2023-04-08T06:19:17.434Z,12.17
2023-04-08T06:21:44.097Z,11.70
2023-04-08T06:24:11.281Z,11.30
2023-04-08T06:26:37.914Z,10.77
2023-04-08T06:29:04.988Z,11.03
2023-04-08T06:31:31.673Z,10.70
2023-04-08T06:33:58.960Z,11.27
2023-04-08T06:36:26.274Z,9.33
2023-04-08T06:38:52.924Z,9.40
2023-04-08T06:41:19.560Z,12.07
2023-04-08T06:43:46.225Z,12.10
2023-04-08T06:46:12.899Z,11.47
2023-04-08T06:48:40.169Z,12.17
2023-04-08T06:51:07.772Z,11.40
2023-04-08T06:53:34.476Z,11.07
2023-04-08T06:56:01.224Z,11.00
2023-04-08T06:58:27.952Z,10.80
2023-04-08T07:00:56.129Z,11.00
2023-04-08T07:03:24.090Z,12.27
2023-04-08T07:05:50.894Z,11.93
2023-04-08T07:08:17.540Z,12.70
2023-04-08T07:10:44.804Z,12.27
2023-04-08T07:13:11.626Z,13.27
2023-04-08T07:15:38.340Z,14.63
2023-04-08T07:18:05.997Z,17.10
2023-04-08T07:20:35.706Z,20.80
2023-04-08T07:23:03.082Z,20.40
2023-04-08T07:25:30.552Z,21.77
2023-04-08T07:27:57.249Z,23.40
2023-04-08T07:30:23.863Z,20.13
2023-04-08T07:32:50.814Z,19.13
2023-04-08T07:35:24.090Z,20.27
2023-04-08T07:37:51.558Z,19.73
2023-04-08T07:40:18.334Z,19.80
2023-04-08T07:42:45.060Z,21.00
2023-04-08T07:45:11.968Z,19.63
2023-04-08T07:47:38.784Z,20.87
2023-04-08T07:50:06.043Z,22.97
2023-04-08T07:52:32.913Z,20.47
2023-04-08T07:54:59.773Z,20.53
2023-04-08T07:57:26.804Z,22.37
2023-04-08T07:59:54.155Z,22.53
2023-04-08T08:02:21.098Z,24.37
2023-04-08T08:04:47.870Z,21.43
2023-04-08T08:07:14.554Z,20.77
2023-04-08T08:09:41.174Z,22.40
2023-04-08T08:12:08.338Z,19.93
2023-04-08T08:14:35.030Z,22.03
2023-04-08T08:17:03.241Z,20.50
2023-04-08T08:19:29.926Z,22.10
2023-04-08T08:21:56.879Z,21.60
2023-04-08T08:24:23.532Z,22.40
2023-04-08T08:26:50.528Z,21.53
2023-04-08T08:29:17.194Z,22.57
2023-04-08T08:31:43.919Z,21.80
2023-04-08T08:34:10.668Z,20.77
2023-04-08T08:36:37.322Z,22.20
2023-04-08T08:39:04.145Z,23.73
2023-04-08T08:41:35.841Z,22.90
2023-04-08T08:44:05.096Z,22.60
2023-04-08T08:46:31.903Z,21.40
2023-04-08T08:48:58.738Z,21.67
2023-04-08T08:51:27.825Z,23.83
2023-04-08T08:53:54.730Z,24.07
2023-04-08T08:56:21.932Z,24.33
2023-04-08T08:58:49.154Z,23.50
2023-04-08T09:01:32.805Z,25.37
2023-04-08T09:04:20.666Z,25.50
2023-04-08T09:07:08.152Z,26.50
2023-04-08T09:09:51.145Z,27.17
2023-04-08T09:12:18.286Z,27.30
2023-04-08T09:14:45.252Z,25.67
2023-04-08T09:17:12.021Z,26.80
2023-04-08T09:19:38.793Z,28.93
2023-04-08T09:22:11.295Z,28.60
2023-04-08T09:24:38.292Z,27.67
2023-04-08T09:27:06.063Z,28.00
2023-04-08T09:29:35.768Z,27.00
2023-04-08T09:32:04.095Z,29.53
2023-04-08T09:34:33.852Z,28.80
2023-04-08T09:37:00.744Z,26.07
2023-04-08T09:39:27.384Z,31.70
2023-04-08T09:41:58.248Z,29.40
2023-04-08T09:44:28.468Z,28.60
2023-04-08T09:47:28.672Z,27.77
2023-04-08T09:50:04.012Z,27.80
2023-04-08T09:52:34.196Z,25.40
2023-04-08T09:55:09.566Z,27.07
2023-04-08T09:58:10.620Z,27.90
2023-04-08T10:00:50.234Z,26.43
2023-04-08T10:03:46.006Z,25.33
2023-04-08T10:06:12.781Z,27.67
2023-04-08T10:08:39.676Z,26.10
2023-04-08T10:11:06.437Z,26.13
2023-04-08T10:13:34.057Z,25.30
2023-04-08T10:16:24.431Z,23.10
2023-04-08T10:18:55.593Z,23.97
2023-04-08T10:21:37.538Z,24.83
2023-04-08T10:24:11.590Z,23.77
2023-04-08T10:26:40.418Z,24.27
2023-04-08T10:29:19.185Z,22.23
2023-04-08T10:31:50.687Z,18.23
2023-04-08T10:34:22.639Z,16.63
2023-04-08T10:36:49.797Z,17.70
2023-04-08T10:39:16.976Z,17.20
2023-04-08T10:41:45.740Z,18.70
2023-04-08T10:44:22.939Z,19.70
2023-04-08T10:46:51.301Z,16.90
2023-04-08T10:49:18.935Z,16.00
2023-04-08T10:51:46.957Z,16.37
2023-04-08T10:54:18.457Z,16.33
2023-04-08T10:56:49.904Z,14.17
2023-04-08T10:59:27.516Z,14.57
2023-04-08T11:01:55.329Z,17.17
2023-04-08T11:04:23.581Z,16.67
2023-04-08T11:06:51.404Z,13.90
2023-04-08T11:09:18.244Z,13.20
2023-04-08T11:11:46.557Z,14.10
2023-04-08T11:14:13.908Z,12.67
2023-04-08T11:16:40.898Z,14.23
2023-04-08T11:19:08.797Z,12.33
2023-04-08T11:21:37.354Z,14.03
2023-04-08T11:24:09.944Z,13.70
2023-04-08T11:26:37.609Z,12.67
2023-04-08T11:29:06.286Z,13.17
2023-04-08T11:31:33.758Z,13.30
2023-04-08T11:34:00.465Z,14.20
2023-04-08T11:36:30.065Z,13.93
2023-04-08T11:38:56.899Z,13.93
2023-04-08T11:41:24.069Z,13.90
2023-04-08T11:43:55.910Z,16.00
2023-04-08T11:46:23.657Z,13.67
2023-04-08T11:49:07.889Z,13.80
2023-04-08T11:51:52.406Z,13.27
2023-04-08T11:54:32.984Z,10.17
2023-04-08T11:56:59.956Z,11.70
2023-04-08T11:59:29.031Z,8.97
2023-04-08T12:01:56.471Z,9.47
2023-04-08T12:04:23.329Z,9.97
2023-04-08T12:06:50.210Z,9.63
2023-04-08T12:09:17.517Z,10.40
2023-04-08T12:11:44.526Z,10.30
2023-04-08T12:14:11.238Z,10.23
2023-04-08T12:16:37.996Z,13.37
2023-04-08T12:19:04.737Z,10.30
2023-04-08T12:21:33.862Z,11.20
2023-04-08T12:24:00.792Z,9.40
2023-04-08T12:26:27.744Z,10.60
2023-04-08T12:28:54.412Z,18.23
2023-04-08T12:31:22.558Z,9.53
2023-04-08T12:33:49.814Z,10.00
2023-04-08T12:36:17.166Z,9.27
2023-04-08T12:38:43.869Z,8.27
2023-04-08T12:41:10.540Z,8.97
2023-04-08T12:43:37.606Z,10.10
2023-04-08T12:46:04.246Z,9.57
2023-04-08T12:48:31.117Z,11.97
2023-04-08T12:50:58.684Z,9.80
2023-04-08T12:53:25.343Z,9.10
2023-04-08T12:55:52.239Z,9.50
2023-04-08T12:58:20.822Z,10.07
2023-04-08T13:00:49.597Z,10.20
2023-04-08T13:03:17.836Z,9.00
2023-04-08T13:05:44.749Z,10.67
2023-04-08T13:08:14.532Z,11.03
2023-04-08T13:10:42.408Z,10.13
2023-04-08T13:13:09.063Z,8.47
2023-04-08T13:15:35.778Z,8.57
2023-04-08T13:18:02.474Z,10.50
2023-04-08T13:20:29.152Z,8.40
2023-04-08T13:22:55.871Z,9.40
2023-04-08T13:25:22.627Z,8.60
2023-04-08T13:27:49.272Z,8.97
2023-04-08T13:30:16.381Z,7.50
2023-04-08T13:32:43.200Z,7.63
2023-04-08T13:35:10.353Z,8.67
2023-04-08T13:37:37.360Z,7.33
2023-04-08T13:40:05.057Z,6.93
2023-04-08T13:42:32.808Z,7.20
2023-04-08T13:44:59.860Z,8.50
2023-04-08T13:47:27.100Z,8.50
2023-04-08T13:49:54.315Z,8.10
2023-04-08T13:52:21.219Z,6.33
2023-04-08T13:54:47.863Z,8.20
2023-04-08T13:57:15.253Z,6.67
2023-04-08T13:59:43.306Z,7.90
2023-04-08T14:02:11.296Z,7.00
2023-04-08T14:04:38.031Z,7.13
2023-04-08T14:07:05.263Z,8.40
2023-04-08T14:09:32.086Z,8.40
2023-04-08T14:11:59.387Z,7.87
2023-04-08T14:14:26.719Z,8.10
2023-04-08T14:16:53.573Z,8.50
2023-04-08T14:19:20.266Z,9.83
2023-04-08T14:21:47.015Z,9.50
2023-04-08T14:24:13.640Z,8.67
2023-04-08T14:26:40.742Z,9.40
2023-04-08T14:29:07.676Z,9.47
2023-04-08T14:31:34.912Z,10.07
2023-04-08T14:34:01.992Z,10.47
2023-04-08T14:36:29.110Z,9.93
2023-04-08T14:38:56.191Z,10.70
2023-04-08T14:41:23.215Z,9.90
2023-04-08T14:43:49.860Z,11.20
2023-04-08T14:46:17.199Z,12.27
2023-04-08T14:48:43.972Z,11.13
2023-04-08T14:51:10.732Z,12.10
2023-04-08T14:53:37.416Z,11.90
2023-04-08T14:56:05.068Z,12.57
2023-04-08T14:58:32.911Z,12.20
2023-04-08T15:00:59.517Z,12.07
2023-04-08T15:03:27.025Z,13.93
2023-04-08T15:05:58.338Z,13.17
2023-04-08T15:08:25.008Z,13.03
2023-04-08T15:10:51.692Z,13.50
2023-04-08T15:13:18.924Z,14.07
2023-04-08T15:15:45.792Z,14.20
2023-04-08T15:18:12.515Z,15.40
2023-04-08T15:20:39.176Z,15.97
2023-04-08T15:23:06.003Z,13.67
2023-04-08T15:25:32.933Z,14.67
2023-04-08T15:27:59.609Z,12.50
2023-04-08T15:30:26.337Z,16.60
2023-04-08T15:32:52.986Z,15.27
2023-04-08T15:35:19.678Z,13.23
2023-04-08T15:37:46.342Z,14.47
2023-04-08T15:40:13.231Z,15.50
2023-04-08T15:42:39.890Z,15.67
2023-04-08T15:45:06.915Z,15.40
2023-04-08T15:47:35.151Z,14.77
2023-04-08T15:50:01.849Z,14.03
2023-04-08T15:52:28.484Z,14.20
2023-04-08T15:54:55.100Z,15.13
2023-04-08T15:57:26.335Z,13.33
2023-04-08T15:59:56.146Z,15.03
2023-04-08T16:02:22.925Z,13.93
2023-04-08T16:04:49.864Z,15.00
2023-04-08T16:07:16.599Z,16.70
2023-04-08T16:09:43.672Z,16.07
2023-04-08T16:12:10.718Z,20.50
2023-04-08T16:14:37.384Z,17.23
2023-04-08T16:17:04.652Z,16.90
2023-04-08T16:19:32.265Z,17.37
2023-04-08T16:21:58.923Z,17.10
2023-04-08T16:24:25.703Z,18.57
2023-04-08T16:26:52.958Z,17.87
2023-04-08T16:29:19.570Z,18.27
2023-04-08T16:31:47.034Z,18.20
2023-04-08T16:34:13.701Z,17.27
2023-04-08T16:36:40.836Z,18.50
2023-04-08T16:39:07.460Z,20.13
2023-04-08T16:41:34.778Z,18.00
2023-04-08T16:44:01.398Z,19.77
2023-04-08T16:46:28.070Z,18.20
2023-04-08T16:48:54.684Z,18.00
2023-04-08T16:51:21.470Z,16.90
2023-04-08T16:53:48.106Z,18.47
2023-04-08T16:56:18.584Z,17.03
2023-04-08T16:58:45.364Z,22.07
2023-04-08T17:01:16.060Z,20.23
2023-04-08T17:03:42.906Z,18.57
2023-04-08T17:06:14.470Z,18.13
2023-04-08T17:08:43.464Z,19.50
2023-04-08T17:11:13.314Z,19.13
2023-04-08T17:13:42.012Z,17.30
2023-04-08T17:16:16.863Z,18.50
2023-04-08T17:18:44.621Z,18.50
2023-04-08T17:21:13.954Z,17.53
2023-04-08T17:23:40.900Z,18.83
2023-04-08T17:26:09.183Z,20.00
2023-04-08T17:28:36.505Z,19.77
2023-04-08T17:31:03.232Z,19.40
2023-04-08T17:33:30.219Z,19.97
2023-04-08T17:35:57.440Z,19.23
2023-04-08T17:38:24.204Z,19.83
2023-04-08T17:40:50.832Z,17.80
2023-04-08T17:43:17.892Z,18.30
2023-04-08T17:45:44.742Z,22.20
2023-04-08T17:48:11.580Z,18.67
2023-04-08T17:50:38.284Z,17.87
2023-04-08T17:53:04.911Z,17.83
2023-04-08T17:55:31.617Z,18.53
2023-04-08T17:57:58.943Z,18.40
2023-04-08T18:00:27.381Z,20.27
2023-04-08T18:02:54.068Z,19.70
2023-04-08T18:05:21.619Z,21.40
2023-04-08T18:07:48.681Z,20.40
2023-04-08T18:10:15.339Z,21.90
2023-04-08T18:12:42.316Z,19.80
2023-04-08T18:15:09.269Z,19.87
2023-04-08T18:17:35.952Z,18.70
2023-04-08T18:20:02.606Z,20.57
2023-04-08T18:22:29.493Z,19.67
2023-04-08T18:24:56.727Z,19.17
2023-04-08T18:27:23.352Z,18.90
2023-04-08T18:29:53.207Z,20.90
2023-04-08T18:32:19.904Z,22.03
2023-04-08T18:34:46.949Z,20.97
2023-04-08T18:37:16.724Z,20.70
2023-04-08T18:39:43.431Z,20.17
2023-04-08T18:42:10.176Z,19.97
2023-04-08T18:44:37.631Z,20.30
2023-04-08T18:47:05.131Z,20.40
2023-04-08T18:49:33.941Z,21.07
2023-04-08T18:52:03.008Z,21.53
2023-04-08T18:54:30.006Z,22.17
2023-04-08T18:56:56.820Z,22.30
2023-04-08T18:59:24.264Z,21.77
2023-04-08T19:01:50.995Z,22.40
2023-04-08T19:04:18.135Z,23.83
2023-04-08T19:06:45.036Z,23.20
2023-04-08T19:09:11.649Z,23.93
2023-04-08T19:11:38.360Z,22.80
2023-04-08T19:14:05.356Z,24.60
2023-04-08T19:16:32.282Z,25.57
2023-04-08T19:18:58.953Z,25.80
2023-04-08T19:21:27.138Z,26.13
2023-04-08T19:23:54.017Z,29.20
2023-04-08T19:26:20.802Z,44.20
2023-04-08T19:28:47.512Z,28.00
2023-04-08T19:31:16.320Z,29.00
2023-04-08T19:33:43.241Z,31.50
2023-04-08T19:36:10.014Z,39.83
2023-04-08T19:38:36.953Z,34.97
2023-04-08T19:41:03.774Z,46.77
2023-04-08T19:43:30.552Z,41.40
2023-04-08T19:45:57.715Z,37.67
2023-04-08T19:48:25.620Z,36.93
2023-04-08T19:50:52.423Z,40.40
2023-04-08T19:53:19.044Z,41.83
2023-04-08T19:55:45.781Z,40.17
2023-04-08T19:58:12.472Z,37.10
2023-04-08T20:00:39.977Z,29.37
2023-04-08T20:03:07.852Z,30.27
2023-04-08T20:05:34.792Z,33.83
2023-04-08T20:08:01.399Z,29.60
2023-04-08T20:10:28.081Z,29.57
2023-04-08T20:12:54.796Z,29.50
2023-04-08T20:15:25.098Z,29.87
2023-04-08T20:17:53.111Z,28.90
2023-04-08T20:20:20.379Z,29.00
2023-04-08T20:22:47.070Z,31.10
2023-04-08T20:25:13.857Z,31.23
2023-04-08T20:27:41.161Z,30.27
2023-04-08T20:30:08.332Z,30.07
2023-04-08T20:32:34.995Z,29.47
2023-04-08T20:35:01.982Z,28.47
2023-04-08T20:37:28.672Z,28.23
2023-04-08T20:39:55.301Z,29.10
2023-04-08T20:42:22.497Z,27.87
2023-04-08T20:44:49.102Z,27.43
2023-04-08T20:47:16.696Z,27.70
2023-04-08T20:49:43.328Z,28.03
2023-04-08T20:52:09.994Z,26.57
2023-04-08T20:54:36.595Z,28.00
2023-04-08T20:57:03.848Z,29.07
2023-04-08T20:59:30.469Z,28.13
2023-04-08T21:01:57.130Z,28.10
2023-04-08T21:04:24.402Z,27.63
2023-04-08T21:06:51.549Z,27.90
2023-04-08T21:09:18.159Z,29.73
2023-04-08T21:11:44.862Z,31.50
2023-04-08T21:14:11.474Z,30.83
2023-04-08T21:16:38.128Z,31.10
2023-04-08T21:19:04.858Z,31.27
2023-04-08T21:21:32.049Z,30.93
2023-04-08T21:24:00.431Z,33.57
2023-04-08T21:26:27.603Z,32.00
2023-04-08T21:28:54.285Z,33.30
2023-04-08T21:31:21.003Z,33.47
2023-04-08T21:33:47.647Z,34.00
2023-04-08T21:36:14.296Z,34.63
2023-04-08T21:38:41.819Z,33.60
2023-04-08T21:41:08.603Z,34.10
2023-04-08T21:43:35.299Z,34.37
2023-04-08T21:46:01.950Z,33.93
2023-04-08T21:48:28.764Z,34.57
2023-04-08T21:50:55.453Z,33.00
2023-04-08T21:53:23.649Z,33.77
2023-04-08T21:55:50.259Z,35.20
2023-04-08T21:58:17.117Z,36.97
2023-04-08T22:00:44.594Z,34.47
2023-04-08T22:03:12.080Z,37.30
2023-04-08T22:05:38.996Z,34.60
2023-04-08T22:08:05.742Z,38.37
2023-04-08T22:10:32.346Z,38.30
2023-04-08T22:12:58.973Z,36.93
2023-04-08T22:15:25.627Z,38.20
2023-04-08T22:17:52.986Z,38.10
2023-04-08T22:20:19.691Z,39.63
2023-04-08T22:22:46.335Z,37.87
2023-04-08T22:25:13.002Z,38.23
2023-04-08T22:27:39.641Z,41.20
2023-04-08T22:30:06.987Z,40.90
2023-04-08T22:32:33.619Z,39.70
2023-04-08T22:35:00.411Z,40.13
2023-04-08T22:37:27.077Z,39.87
2023-04-08T22:39:53.725Z,39.70
2023-04-08T22:42:20.706Z,40.17
2023-04-08T22:44:47.357Z,41.30
2023-04-08T22:47:14.042Z,40.60
2023-04-08T22:49:42.568Z,40.83
2023-04-08T22:52:09.556Z,39.67
2023-04-08T22:54:36.665Z,38.53
2023-04-08T22:57:03.457Z,40.93
2023-04-08T22:59:30.259Z,40.50
2023-04-08T23:01:56.891Z,39.17
2023-04-08T23:04:23.827Z,38.73
2023-04-08T23:06:50.859Z,40.20
2023-04-08T23:09:17.463Z,38.60
2023-04-08T23:11:44.076Z,38.50
2023-04-08T23:14:11.353Z,37.00
2023-04-08T23:16:37.961Z,42.60
2023-04-08T23:19:04.631Z,37.40
2023-04-08T23:21:31.338Z,40.10
2023-04-08T23:23:57.975Z,40.27
2023-04-08T23:26:25.311Z,42.23
2023-04-08T23:28:52.142Z,37.70
2023-04-08T23:31:19.177Z,35.93
2023-04-08T23:33:45.910Z,38.13
2023-04-08T23:36:13.151Z,38.20
2023-04-08T23:38:39.922Z,36.17
2023-04-08T23:41:07.713Z,40.23
2023-04-08T23:43:34.846Z,38.90
2023-04-08T23:46:01.667Z,36.17
2023-04-08T23:48:28.877Z,37.27
2023-04-08T23:50:55.948Z,36.63
2023-04-08T23:53:22.831Z,36.50
2023-04-08T23:55:49.572Z,37.47
2023-04-08T23:58:16.168Z,38.33
